sensor_id;sensor_type;location;lat;lon;timestamp;pressure;altitude;pressure_sealevel;temperature;humidity
75192;BME280;63771;52.580;9.734;2023-01-16T00:00:10;99480.72;;;5.92;75.75
75192;BME280;63771;52.580;9.734;2023-01-16T00:02:35;99480.44;;;5.89;75.60
75192;BME280;63771;52.580;9.734;2023-01-16T00:05:01;99469.44;;;5.88;75.29
75192;BME280;63771;52.580;9.734;2023-01-16T00:07:26;99463.38;;;5.86;75.69
75192;BME280;63771;52.580;9.734;2023-01-16T00:09:51;99463.13;;;5.83;75.75
75192;BME280;63771;52.580;9.734;2023-01-16T00:12:16;99466.53;;;5.84;75.75
75192;BME280;63771;52.580;9.734;2023-01-16T00:14:42;99454.66;;;5.83;75.12
75192;BME280;63771;52.580;9.734;2023-01-16T00:17:07;99456.19;;;5.81;75.32
75192;BME280;63771;52.580;9.734;2023-01-16T00:19:32;99447.44;;;5.77;74.97
75192;BME280;63771;52.580;9.734;2023-01-16T00:21:58;99434.69;;;5.75;75.72
75192;BME280;63771;52.580;9.734;2023-01-16T00:24:23;99443.53;;;5.81;75.86
75192;BME280;63771;52.580;9.734;2023-01-16T00:26:50;99437.59;;;5.80;75.23
75192;BME280;63771;52.580;9.734;2023-01-16T00:29:16;99424.69;;;5.77;75.88
75192;BME280;63771;52.580;9.734;2023-01-16T00:31:41;99419.63;;;5.77;75.78
75192;BME280;63771;52.580;9.734;2023-01-16T00:34:06;99417.75;;;5.74;75.81
75192;BME280;63771;52.580;9.734;2023-01-16T00:36:32;99417.75;;;5.74;75.79
75192;BME280;63771;52.580;9.734;2023-01-16T00:38:57;99412.44;;;5.71;75.48
75192;BME280;63771;52.580;9.734;2023-01-16T00:41:22;99408.25;;;5.72;75.91
75192;BME280;63771;52.580;9.734;2023-01-16T00:43:48;99401.44;;;5.71;75.66
75192;BME280;63771;52.580;9.734;2023-01-16T00:46:13;99393.72;;;5.69;75.77
75192;BME280;63771;52.580;9.734;2023-01-16T00:48:38;99401.94;;;5.67;75.55
75192;BME280;63771;52.580;9.734;2023-01-16T00:51:04;99400.94;;;5.65;75.49
75192;BME280;63771;52.580;9.734;2023-01-16T00:53:29;99400.06;;;5.64;75.57
75192;BME280;63771;52.580;9.734;2023-01-16T00:55:55;99393.88;;;5.61;75.64
75192;BME280;63771;52.580;9.734;2023-01-16T00:58:20;99400.47;;;5.59;75.52
75192;BME280;63771;52.580;9.734;2023-01-16T01:00:45;99407.91;;;5.57;75.20
75192;BME280;63771;52.580;9.734;2023-01-16T01:03:11;99398.56;;;5.56;76.21
75192;BME280;63771;52.580;9.734;2023-01-16T01:05:37;99396.44;;;5.50;75.68
75192;BME280;63771;52.580;9.734;2023-01-16T01:08:04;99393.53;;;5.46;75.47
75192;BME280;63771;52.580;9.734;2023-01-16T01:10:29;99391.66;;;5.43;75.62
75192;BME280;63771;52.580;9.734;2023-01-16T01:12:55;99384.19;;;5.35;76.04
75192;BME280;63771;52.580;9.734;2023-01-16T01:15:21;99379.66;;;5.31;75.81
75192;BME280;63771;52.580;9.734;2023-01-16T01:17:46;99384.47;;;5.28;75.93
75192;BME280;63771;52.580;9.734;2023-01-16T01:20:12;99386.50;;;5.21;76.21
75192;BME280;63771;52.580;9.734;2023-01-16T01:22:37;99375.00;;;5.15;75.66
75192;BME280;63771;52.580;9.734;2023-01-16T01:25:02;99375.50;;;5.11;76.64
75192;BME280;63771;52.580;9.734;2023-01-16T01:27:28;99383.09;;;5.11;76.19
75192;BME280;63771;52.580;9.734;2023-01-16T01:29:53;99371.13;;;5.08;76.59
75192;BME280;63771;52.580;9.734;2023-01-16T01:32:18;99373.53;;;5.07;76.49
75192;BME280;63771;52.580;9.734;2023-01-16T01:34:44;99367.06;;;5.10;76.36
75192;BME280;63771;52.580;9.734;2023-01-16T01:37:09;99364.28;;;5.07;76.15
75192;BME280;63771;52.580;9.734;2023-01-16T01:39:35;99359.75;;;5.03;76.16
75192;BME280;63771;52.580;9.734;2023-01-16T01:42:01;99355.56;;;5.04;76.27
75192;BME280;63771;52.580;9.734;2023-01-16T01:47:21;99351.66;;;4.97;76.80
75192;BME280;63771;52.580;9.734;2023-01-16T01:49:49;99344.84;;;4.96;76.80
75192;BME280;63771;52.580;9.734;2023-01-16T01:52:15;99345.75;;;4.96;77.25
75192;BME280;63771;52.580;9.734;2023-01-16T01:54:45;99341.94;;;5.02;77.19
75192;BME280;63771;52.580;9.734;2023-01-16T01:57:17;99339.13;;;5.09;76.69
75192;BME280;63771;52.580;9.734;2023-01-16T01:59:49;99332.69;;;5.12;76.80
75192;BME280;63771;52.580;9.734;2023-01-16T02:02:20;99328.63;;;5.14;76.81
75192;BME280;63771;52.580;9.734;2023-01-16T02:04:48;99324.34;;;5.13;76.59
75192;BME280;63771;52.580;9.734;2023-01-16T02:07:18;99321.81;;;5.13;76.59
75192;BME280;63771;52.580;9.734;2023-01-16T02:09:44;99316.97;;;5.16;76.39
75192;BME280;63771;52.580;9.734;2023-01-16T02:12:14;99315.22;;;5.15;76.77
75192;BME280;63771;52.580;9.734;2023-01-16T02:14:43;99306.00;;;5.16;76.61
75192;BME280;63771;52.580;9.734;2023-01-16T02:17:10;99305.09;;;5.15;77.08
75192;BME280;63771;52.580;9.734;2023-01-16T02:20:12;99302.19;;;5.21;76.90
75192;BME280;63771;52.580;9.734;2023-01-16T02:26:13;99292.84;;;5.20;76.66
75192;BME280;63771;52.580;9.734;2023-01-16T02:34:19;99286.66;;;5.16;76.98
75192;BME280;63771;52.580;9.734;2023-01-16T02:39:39;99276.06;;;5.10;77.14
75192;BME280;63771;52.580;9.734;2023-01-16T02:42:32;99273.03;;;5.04;77.08
75192;BME280;63771;52.580;9.734;2023-01-16T02:47:55;99265.59;;;4.95;77.74
75192;BME280;63771;52.580;9.734;2023-01-16T02:50:32;99255.28;;;4.92;77.64
75192;BME280;63771;52.580;9.734;2023-01-16T02:53:21;99253.16;;;4.87;77.96
75192;BME280;63771;52.580;9.734;2023-01-16T02:55:54;99256.19;;;4.83;77.86
75192;BME280;63771;52.580;9.734;2023-01-16T02:58:24;99245.09;;;4.81;78.18
75192;BME280;63771;52.580;9.734;2023-01-16T03:00:54;99233.72;;;4.76;78.39
75192;BME280;63771;52.580;9.734;2023-01-16T03:03:37;99233.94;;;4.79;78.43
75192;BME280;63771;52.580;9.734;2023-01-16T03:06:10;99224.63;;;4.78;78.54
75192;BME280;63771;52.580;9.734;2023-01-16T03:11:15;99227.25;;;4.79;78.21
75192;BME280;63771;52.580;9.734;2023-01-16T03:14:14;99218.91;;;4.80;79.24
75192;BME280;63771;52.580;9.734;2023-01-16T03:19:42;99214.22;;;4.85;80.26
75192;BME280;63771;52.580;9.734;2023-01-16T03:22:23;99205.75;;;4.84;80.36
75192;BME280;63771;52.580;9.734;2023-01-16T03:27:37;99198.84;;;4.82;80.07
75192;BME280;63771;52.580;9.734;2023-01-16T03:32:45;99195.06;;;4.77;80.49
75192;BME280;63771;52.580;9.734;2023-01-16T03:35:31;99192.53;;;4.77;80.60
75192;BME280;63771;52.580;9.734;2023-01-16T03:38:04;99196.06;;;4.79;80.32
75192;BME280;63771;52.580;9.734;2023-01-16T03:40:34;99193.53;;;4.79;79.92
75192;BME280;63771;52.580;9.734;2023-01-16T03:43:06;99187.59;;;4.78;79.86
75192;BME280;63771;52.580;9.734;2023-01-16T03:45:40;99173.09;;;4.76;79.88
75192;BME280;63771;52.580;9.734;2023-01-16T03:48:34;99173.97;;;4.76;79.90
75192;BME280;63771;52.580;9.734;2023-01-16T03:50:59;99166.25;;;4.75;79.39
75192;BME280;63771;52.580;9.734;2023-01-16T03:53:29;99157.69;;;4.72;79.52
75192;BME280;63771;52.580;9.734;2023-01-16T03:59:00;99147.00;;;4.65;79.70
75192;BME280;63771;52.580;9.734;2023-01-16T04:01:32;99140.03;;;4.62;80.03
75192;BME280;63771;52.580;9.734;2023-01-16T04:04:24;99146.84;;;4.63;80.41
75192;BME280;63771;52.580;9.734;2023-01-16T04:07:03;99139.28;;;4.63;80.27
75192;BME280;63771;52.580;9.734;2023-01-16T04:10:02;99134.47;;;4.66;80.25
75192;BME280;63771;52.580;9.734;2023-01-16T04:12:32;99133.59;;;4.66;80.44
75192;BME280;63771;52.580;9.734;2023-01-16T04:15:03;99129.44;;;4.66;80.21
75192;BME280;63771;52.580;9.734;2023-01-16T04:17:29;99115.66;;;4.63;80.13
75192;BME280;63771;52.580;9.734;2023-01-16T04:19:55;99116.94;;;4.58;80.58
75192;BME280;63771;52.580;9.734;2023-01-16T04:22:23;99125.19;;;4.55;80.78
75192;BME280;63771;52.580;9.734;2023-01-16T04:24:50;99119.38;;;4.46;80.68
75192;BME280;63771;52.580;9.734;2023-01-16T04:27:17;99105.53;;;4.41;80.71
75192;BME280;63771;52.580;9.734;2023-01-16T04:29:43;99104.94;;;4.33;80.79
75192;BME280;63771;52.580;9.734;2023-01-16T04:32:08;99097.72;;;4.28;80.92
75192;BME280;63771;52.580;9.734;2023-01-16T04:34:34;99099.00;;;4.23;81.65
75192;BME280;63771;52.580;9.734;2023-01-16T04:36:59;99092.47;;;4.14;81.26
75192;BME280;63771;52.580;9.734;2023-01-16T04:39:24;99089.47;;;4.08;81.71
75192;BME280;63771;52.580;9.734;2023-01-16T04:41:50;99083.16;;;4.03;81.99
75192;BME280;63771;52.580;9.734;2023-01-16T04:44:16;99091.22;;;3.99;82.44
75192;BME280;63771;52.580;9.734;2023-01-16T04:46:42;99080.00;;;3.96;82.46
75192;BME280;63771;52.580;9.734;2023-01-16T04:49:08;99073.31;;;3.96;82.90
75192;BME280;63771;52.580;9.734;2023-01-16T04:51:35;99075.97;;;3.98;82.99
75192;BME280;63771;52.580;9.734;2023-01-16T04:54:01;99072.94;;;4.02;83.10
75192;BME280;63771;52.580;9.734;2023-01-16T04:56:27;99071.16;;;4.01;83.01
75192;BME280;63771;52.580;9.734;2023-01-16T04:58:52;99065.50;;;4.03;82.99
75192;BME280;63771;52.580;9.734;2023-01-16T05:01:19;99062.09;;;4.03;82.96
75192;BME280;63771;52.580;9.734;2023-01-16T05:03:44;99071.16;;;4.01;82.98
75192;BME280;63771;52.580;9.734;2023-01-16T05:06:09;99064.00;;;3.95;83.32
75192;BME280;63771;52.580;9.734;2023-01-16T05:08:35;99054.19;;;3.88;83.24
75192;BME280;63771;52.580;9.734;2023-01-16T05:11:00;99042.84;;;3.83;83.57
75192;BME280;63771;52.580;9.734;2023-01-16T05:13:27;99039.81;;;3.77;83.55
75192;BME280;63771;52.580;9.734;2023-01-16T05:15:53;99038.94;;;3.76;83.49
75192;BME280;63771;52.580;9.734;2023-01-16T05:18:18;99044.34;;;3.71;83.64
75192;BME280;63771;52.580;9.734;2023-01-16T05:20:43;99031.41;;;3.66;83.51
75192;BME280;63771;52.580;9.734;2023-01-16T05:23:09;99037.69;;;3.61;84.10
75192;BME280;63771;52.580;9.734;2023-01-16T05:25:36;99033.03;;;3.55;83.75
75192;BME280;63771;52.580;9.734;2023-01-16T05:28:01;99031.78;;;3.50;84.35
75192;BME280;63771;52.580;9.734;2023-01-16T05:30:26;99028.88;;;3.46;84.09
75192;BME280;63771;52.580;9.734;2023-01-16T05:32:52;99022.59;;;3.40;83.94
75192;BME280;63771;52.580;9.734;2023-01-16T05:35:17;99020.56;;;3.36;84.09
75192;BME280;63771;52.580;9.734;2023-01-16T05:37:44;99021.94;;;3.33;84.26
75192;BME280;63771;52.580;9.734;2023-01-16T05:40:10;99021.56;;;3.28;84.14
75192;BME280;63771;52.580;9.734;2023-01-16T05:42:36;99019.69;;;3.26;84.27
75192;BME280;63771;52.580;9.734;2023-01-16T05:45:02;99011.63;;;3.20;84.29
75192;BME280;63771;52.580;9.734;2023-01-16T05:47:27;99015.16;;;3.22;84.45
75192;BME280;63771;52.580;9.734;2023-01-16T05:49:52;99008.09;;;3.18;84.48
75192;BME280;63771;52.580;9.734;2023-01-16T05:52:18;99006.34;;;3.17;84.67
75192;BME280;63771;52.580;9.734;2023-01-16T05:54:43;99001.06;;;3.13;84.65
75192;BME280;63771;52.580;9.734;2023-01-16T05:57:08;99000.03;;;3.11;85.07
75192;BME280;63771;52.580;9.734;2023-01-16T05:59:34;98988.81;;;3.08;85.00
75192;BME280;63771;52.580;9.734;2023-01-16T06:01:59;98992.72;;;3.04;84.95
75192;BME280;63771;52.580;9.734;2023-01-16T06:04:25;98983.16;;;3.00;84.96
75192;BME280;63771;52.580;9.734;2023-01-16T06:06:50;98973.56;;;2.96;84.91
75192;BME280;63771;52.580;9.734;2023-01-16T06:09:16;98969.56;;;2.88;84.98
75192;BME280;63771;52.580;9.734;2023-01-16T06:11:41;98974.59;;;2.88;85.12
75192;BME280;63771;52.580;9.734;2023-01-16T06:14:06;98970.06;;;2.84;85.16
75192;BME280;63771;52.580;9.734;2023-01-16T06:16:32;98968.91;;;2.80;85.41
75192;BME280;63771;52.580;9.734;2023-01-16T06:18:58;98956.06;;;2.77;85.15
75192;BME280;63771;52.580;9.734;2023-01-16T06:21:23;98955.69;;;2.73;85.44
75192;BME280;63771;52.580;9.734;2023-01-16T06:23:48;98951.91;;;2.68;85.30
75192;BME280;63771;52.580;9.734;2023-01-16T06:26:14;98949.88;;;2.64;85.53
75192;BME280;63771;52.580;9.734;2023-01-16T06:28:39;98936.03;;;2.58;85.53
75192;BME280;63771;52.580;9.734;2023-01-16T06:31:05;98937.41;;;2.55;85.68
75192;BME280;63771;52.580;9.734;2023-01-16T06:33:31;98932.88;;;2.51;85.70
75192;BME280;63771;52.580;9.734;2023-01-16T06:35:56;98929.09;;;2.46;85.78
75192;BME280;63771;52.580;9.734;2023-01-16T06:38:22;98933.09;;;2.44;86.12
75192;BME280;63771;52.580;9.734;2023-01-16T06:40:47;98927.19;;;2.43;86.50
75192;BME280;63771;52.580;9.734;2023-01-16T06:43:13;98927.06;;;2.42;86.68
75192;BME280;63771;52.580;9.734;2023-01-16T06:45:40;98918.66;;;2.41;86.64
75192;BME280;63771;52.580;9.734;2023-01-16T06:48:06;98917.00;;;2.42;86.51
75192;BME280;63771;52.580;9.734;2023-01-16T06:50:31;98914.09;;;2.37;86.81
75192;BME280;63771;52.580;9.734;2023-01-16T06:52:56;98909.47;;;2.42;87.20
75192;BME280;63771;52.580;9.734;2023-01-16T06:55:22;98908.81;;;2.44;87.44
75192;BME280;63771;52.580;9.734;2023-01-16T06:57:47;98899.03;;;2.47;87.45
75192;BME280;63771;52.580;9.734;2023-01-16T07:00:13;98885.81;;;2.50;87.50
75192;BME280;63771;52.580;9.734;2023-01-16T07:02:39;98889.56;;;2.55;87.59
75192;BME280;63771;52.580;9.734;2023-01-16T07:05:09;98884.44;;;2.64;87.41
75192;BME280;63771;52.580;9.734;2023-01-16T07:07:35;98880.94;;;2.72;87.40
75192;BME280;63771;52.580;9.734;2023-01-16T07:10:02;98879.78;;;2.78;87.43
75192;BME280;63771;52.580;9.734;2023-01-16T07:12:27;98872.59;;;2.83;86.97
75192;BME280;63771;52.580;9.734;2023-01-16T07:14:53;98871.97;;;2.85;86.85
75192;BME280;63771;52.580;9.734;2023-01-16T07:17:37;98870.59;;;2.89;86.79
75192;BME280;63771;52.580;9.734;2023-01-16T07:20:20;98865.66;;;2.91;86.64
75192;BME280;63771;52.580;9.734;2023-01-16T07:23:30;98865.03;;;2.93;86.68
75192;BME280;63771;52.580;9.734;2023-01-16T07:25:57;98870.31;;;2.96;86.57
75192;BME280;63771;52.580;9.734;2023-01-16T07:28:26;98875.63;;;2.99;86.55
75192;BME280;63771;52.580;9.734;2023-01-16T07:30:52;98864.66;;;2.99;86.71
75192;BME280;63771;52.580;9.734;2023-01-16T07:33:18;98864.66;;;3.09;86.87
75192;BME280;63771;52.580;9.734;2023-01-16T07:35:43;98852.53;;;3.15;87.09
75192;BME280;63771;52.580;9.734;2023-01-16T07:38:10;98844.69;;;3.22;86.73
75192;BME280;63771;52.580;9.734;2023-01-16T07:40:35;98839.91;;;3.25;86.74
75192;BME280;63771;52.580;9.734;2023-01-16T07:43:01;98837.50;;;3.27;86.77
75192;BME280;63771;52.580;9.734;2023-01-16T07:45:26;98830.72;;;3.26;86.77
75192;BME280;63771;52.580;9.734;2023-01-16T07:47:51;98822.16;;;3.24;86.75
75192;BME280;63771;52.580;9.734;2023-01-16T07:50:17;98824.44;;;3.21;86.33
75192;BME280;63771;52.580;9.734;2023-01-16T07:52:43;98825.19;;;3.20;86.44
75192;BME280;63771;52.580;9.734;2023-01-16T07:55:09;98821.66;;;3.18;86.58
75192;BME280;63771;52.580;9.734;2023-01-16T07:57:36;98809.81;;;3.17;86.62
75192;BME280;63771;52.580;9.734;2023-01-16T08:00:03;98808.06;;;3.16;86.79
75192;BME280;63771;52.580;9.734;2023-01-16T08:02:28;98797.13;;;3.15;86.80
75192;BME280;63771;52.580;9.734;2023-01-16T08:04:54;98798.00;;;3.16;86.85
75192;BME280;63771;52.580;9.734;2023-01-16T08:07:19;98802.25;;;3.17;86.75
75192;BME280;63771;52.580;9.734;2023-01-16T08:09:44;98794.09;;;3.19;87.08
75192;BME280;63771;52.580;9.734;2023-01-16T08:12:10;98784.88;;;3.20;87.24
75192;BME280;63771;52.580;9.734;2023-01-16T08:14:35;98787.50;;;3.21;87.31
75192;BME280;63771;52.580;9.734;2023-01-16T08:17:00;98787.88;;;3.26;87.14
75192;BME280;63771;52.580;9.734;2023-01-16T08:19:26;98779.56;;;3.27;87.11
75192;BME280;63771;52.580;9.734;2023-01-16T08:21:51;98764.69;;;3.30;87.18
75192;BME280;63771;52.580;9.734;2023-01-16T08:24:17;98770.19;;;3.36;86.96
75192;BME280;63771;52.580;9.734;2023-01-16T08:26:43;98762.75;;;3.37;87.04
75192;BME280;63771;52.580;9.734;2023-01-16T08:29:09;98761.34;;;3.41;86.69
75192;BME280;63771;52.580;9.734;2023-01-16T08:31:34;98760.94;;;3.47;86.64
75192;BME280;63771;52.580;9.734;2023-01-16T08:34:00;98754.38;;;3.49;86.56
75192;BME280;63771;52.580;9.734;2023-01-16T08:36:25;98736.63;;;3.47;86.45
75192;BME280;63771;52.580;9.734;2023-01-16T08:38:50;98738.09;;;3.55;86.46
75192;BME280;63771;52.580;9.734;2023-01-16T08:41:17;98739.34;;;3.60;86.33
75192;BME280;63771;52.580;9.734;2023-01-16T08:44:01;98733.00;;;3.65;86.46
75192;BME280;63771;52.580;9.734;2023-01-16T08:46:52;98722.81;;;3.76;85.98
75192;BME280;63771;52.580;9.734;2023-01-16T08:49:38;98715.75;;;3.82;85.66
75192;BME280;63771;52.580;9.734;2023-01-16T08:52:22;98703.59;;;3.88;85.24
75192;BME280;63771;52.580;9.734;2023-01-16T08:54:47;98708.09;;;3.92;85.35
75192;BME280;63771;52.580;9.734;2023-01-16T08:57:13;98698.13;;;3.93;85.32
75192;BME280;63771;52.580;9.734;2023-01-16T08:59:38;98695.81;;;3.97;85.25
75192;BME280;63771;52.580;9.734;2023-01-16T09:02:04;98693.41;;;3.98;84.98
75192;BME280;63771;52.580;9.734;2023-01-16T09:04:30;98697.16;;;4.03;84.88
75192;BME280;63771;52.580;9.734;2023-01-16T09:06:56;98689.06;;;4.07;85.29
75192;BME280;63771;52.580;9.734;2023-01-16T09:09:21;98690.38;;;4.14;84.64
75192;BME280;63771;52.580;9.734;2023-01-16T09:11:53;98685.69;;;4.18;84.63
75192;BME280;63771;52.580;9.734;2023-01-16T09:14:37;98692.13;;;4.27;84.36
75192;BME280;63771;52.580;9.734;2023-01-16T09:17:02;98684.13;;;4.32;83.91
75192;BME280;63771;52.580;9.734;2023-01-16T09:19:28;98681.19;;;4.38;83.97
75192;BME280;63771;52.580;9.734;2023-01-16T09:21:53;98671.31;;;4.41;83.69
75192;BME280;63771;52.580;9.734;2023-01-16T09:24:18;98679.13;;;4.44;83.61
75192;BME280;63771;52.580;9.734;2023-01-16T09:26:44;98671.75;;;4.47;83.24
75192;BME280;63771;52.580;9.734;2023-01-16T09:29:09;98666.16;;;4.51;83.18
75192;BME280;63771;52.580;9.734;2023-01-16T09:31:34;98662.09;;;4.53;83.63
75192;BME280;63771;52.580;9.734;2023-01-16T09:33:59;98661.53;;;4.57;83.19
75192;BME280;63771;52.580;9.734;2023-01-16T09:36:25;98662.50;;;4.59;82.80
75192;BME280;63771;52.580;9.734;2023-01-16T09:38:50;98661.88;;;4.62;82.79
75192;BME280;63771;52.580;9.734;2023-01-16T09:41:18;98653.53;;;4.63;82.33
75192;BME280;63771;52.580;9.734;2023-01-16T09:44:05;98633.31;;;4.63;82.17
75192;BME280;63771;52.580;9.734;2023-01-16T09:46:36;98633.66;;;4.67;82.02
75192;BME280;63771;52.580;9.734;2023-01-16T09:49:22;98628.81;;;4.70;82.08
75192;BME280;63771;52.580;9.734;2023-01-16T09:51:54;98622.91;;;4.70;81.44
75192;BME280;63771;52.580;9.734;2023-01-16T09:54:41;98617.94;;;4.71;81.49
75192;BME280;63771;52.580;9.734;2023-01-16T09:57:28;98618.91;;;4.74;81.40
75192;BME280;63771;52.580;9.734;2023-01-16T10:00:15;98606.53;;;4.77;81.47
75192;BME280;63771;52.580;9.734;2023-01-16T10:02:42;98579.84;;;4.68;81.50
75192;BME280;63771;52.580;9.734;2023-01-16T10:05:09;98584.75;;;4.79;81.01
75192;BME280;63771;52.580;9.734;2023-01-16T10:12:34;98558.16;;;4.84;81.04
75192;BME280;63771;52.580;9.734;2023-01-16T10:26:11;98520.94;;;5.06;80.26
75192;BME280;63771;52.580;9.734;2023-01-16T10:29:11;98505.22;;;5.10;80.51
75192;BME280;63771;52.580;9.734;2023-01-16T10:31:46;98495.44;;;5.15;80.36
75192;BME280;63771;52.580;9.734;2023-01-16T10:34:21;98489.91;;;5.20;80.27
75192;BME280;63771;52.580;9.734;2023-01-16T10:36:52;98483.50;;;5.26;80.14
75192;BME280;63771;52.580;9.734;2023-01-16T10:39:20;98487.19;;;5.31;79.66
75192;BME280;63771;52.580;9.734;2023-01-16T10:41:48;98470.69;;;5.36;79.44
75192;BME280;63771;52.580;9.734;2023-01-16T10:44:37;98455.91;;;5.42;78.53
75192;BME280;63771;52.580;9.734;2023-01-16T10:47:30;98455.25;;;5.44;78.12
75192;BME280;63771;52.580;9.734;2023-01-16T10:50:17;98448.63;;;5.46;78.19
75192;BME280;63771;52.580;9.734;2023-01-16T10:52:43;98434.31;;;5.47;77.99
75192;BME280;63771;52.580;9.734;2023-01-16T10:55:09;98431.00;;;5.48;77.91
75192;BME280;63771;52.580;9.734;2023-01-16T10:57:38;98412.66;;;5.50;78.05
75192;BME280;63771;52.580;9.734;2023-01-16T11:00:17;98405.34;;;5.55;77.93
75192;BME280;63771;52.580;9.734;2023-01-16T11:02:45;98393.00;;;5.60;77.68
75192;BME280;63771;52.580;9.734;2023-01-16T11:07:53;98384.94;;;5.65;77.29
75192;BME280;63771;52.580;9.734;2023-01-16T11:10:19;98388.41;;;5.67;77.69
75192;BME280;63771;52.580;9.734;2023-01-16T11:12:45;98378.59;;;5.72;77.14
75192;BME280;63771;52.580;9.734;2023-01-16T11:15:29;98371.09;;;5.73;76.61
75192;BME280;63771;52.580;9.734;2023-01-16T11:18:26;98366.22;;;5.76;76.68
75192;BME280;63771;52.580;9.734;2023-01-16T11:20:57;98358.84;;;5.80;76.94
75192;BME280;63771;52.580;9.734;2023-01-16T11:23:25;98354.84;;;5.83;76.28
75192;BME280;63771;52.580;9.734;2023-01-16T11:25:53;98343.25;;;5.87;75.40
75192;BME280;63771;52.580;9.734;2023-01-16T11:28:31;98329.16;;;5.90;76.05
75192;BME280;63771;52.580;9.734;2023-01-16T11:31:00;98317.38;;;5.91;75.72
75192;BME280;63771;52.580;9.734;2023-01-16T11:33:32;98310.75;;;5.93;75.57
75192;BME280;63771;52.580;9.734;2023-01-16T11:36:01;98295.78;;;5.96;75.12
75192;BME280;63771;52.580;9.734;2023-01-16T11:38:29;98289.94;;;5.97;75.52
75192;BME280;63771;52.580;9.734;2023-01-16T11:40:59;98286.69;;;5.99;75.33
75192;BME280;63771;52.580;9.734;2023-01-16T11:43:26;98287.75;;;6.03;74.57
75192;BME280;63771;52.580;9.734;2023-01-16T11:46:33;98279.97;;;6.00;74.09
75192;BME280;63771;52.580;9.734;2023-01-16T11:49:15;98276.69;;;6.01;74.36
75192;BME280;63771;52.580;9.734;2023-01-16T11:51:40;98269.97;;;6.01;74.60
75192;BME280;63771;52.580;9.734;2023-01-16T11:54:13;98260.78;;;6.04;74.21
75192;BME280;63771;52.580;9.734;2023-01-16T12:08:15;98226.41;;;6.07;73.09
75192;BME280;63771;52.580;9.734;2023-01-16T12:11:10;98217.16;;;6.08;72.90
75192;BME280;63771;52.580;9.734;2023-01-16T12:20:11;98183.75;;;6.13;70.86
75192;BME280;63771;52.580;9.734;2023-01-16T12:23:04;98171.16;;;6.15;71.31
75192;BME280;63771;52.580;9.734;2023-01-16T12:30:53;98157.91;;;6.19;71.29
75192;BME280;63771;52.580;9.734;2023-01-16T12:36:38;98146.38;;;6.24;70.91
75192;BME280;63771;52.580;9.734;2023-01-16T12:39:27;98143.25;;;6.28;70.81
75192;BME280;63771;52.580;9.734;2023-01-16T12:45:23;98123.41;;;6.36;71.37
75192;BME280;63771;52.580;9.734;2023-01-16T12:56:53;98095.88;;;6.42;70.93
75192;BME280;63771;52.580;9.734;2023-01-16T12:59:43;98085.06;;;6.44;70.80
75192;BME280;63771;52.580;9.734;2023-01-16T13:02:34;98074.22;;;6.47;70.86
75192;BME280;63771;52.580;9.734;2023-01-16T13:05:05;98075.13;;;6.47;70.95
75192;BME280;63771;52.580;9.734;2023-01-16T13:07:44;98073.59;;;6.51;69.88
75192;BME280;63771;52.580;9.734;2023-01-16T13:10:33;98077.19;;;6.54;69.69
75192;BME280;63771;52.580;9.734;2023-01-16T13:13:22;98079.88;;;6.58;69.42
75192;BME280;63771;52.580;9.734;2023-01-16T13:16:01;98068.97;;;6.59;69.22
75192;BME280;63771;52.580;9.734;2023-01-16T13:18:37;98064.69;;;6.58;69.92
75192;BME280;63771;52.580;9.734;2023-01-16T13:21:08;98052.19;;;6.61;69.27
75192;BME280;63771;52.580;9.734;2023-01-16T13:23:47;98050.59;;;6.63;70.02
75192;BME280;63771;52.580;9.734;2023-01-16T13:26:15;98048.31;;;6.67;70.12
75192;BME280;63771;52.580;9.734;2023-01-16T13:34:00;98032.25;;;6.67;68.79
75192;BME280;63771;52.580;9.734;2023-01-16T13:37:33;98030.44;;;6.64;69.37
75192;BME280;63771;52.580;9.734;2023-01-16T13:42:10;98020.66;;;6.56;69.96
75192;BME280;63771;52.580;9.734;2023-01-16T13:44:42;98014.75;;;6.55;69.89
75192;BME280;63771;52.580;9.734;2023-01-16T13:47:31;98007.75;;;6.51;69.97
75192;BME280;63771;52.580;9.734;2023-01-16T13:50:25;98014.16;;;6.44;70.18
75192;BME280;63771;52.580;9.734;2023-01-16T13:52:56;97998.91;;;6.43;70.53
75192;BME280;63771;52.580;9.734;2023-01-16T13:55:29;98007.38;;;6.43;69.75
75192;BME280;63771;52.580;9.734;2023-01-16T13:57:56;98004.84;;;6.43;70.04
75192;BME280;63771;52.580;9.734;2023-01-16T14:00:32;97999.03;;;6.46;70.67
75192;BME280;63771;52.580;9.734;2023-01-16T14:03:15;97997.38;;;6.46;70.61
75192;BME280;63771;52.580;9.734;2023-01-16T14:05:44;97992.31;;;6.46;70.87
75192;BME280;63771;52.580;9.734;2023-01-16T14:14:29;97999.66;;;6.42;72.95
75192;BME280;63771;52.580;9.734;2023-01-16T14:17:14;97993.41;;;6.35;73.86
75192;BME280;63771;52.580;9.734;2023-01-16T14:20:00;98009.16;;;6.30;74.06
75192;BME280;63771;52.580;9.734;2023-01-16T14:22:34;97989.50;;;6.25;74.55
75192;BME280;63771;52.580;9.734;2023-01-16T14:24:59;97984.13;;;6.19;74.03
75192;BME280;63771;52.580;9.734;2023-01-16T14:27:47;97971.22;;;6.15;74.40
75192;BME280;63771;52.580;9.734;2023-01-16T14:30:17;97959.28;;;6.12;74.83
75192;BME280;63771;52.580;9.734;2023-01-16T14:32:55;97962.44;;;6.08;74.46
75192;BME280;63771;52.580;9.734;2023-01-16T14:35:30;97970.63;;;6.04;74.18
75192;BME280;63771;52.580;9.734;2023-01-16T14:38:13;97963.66;;;6.00;74.73
75192;BME280;63771;52.580;9.734;2023-01-16T14:40:47;97962.63;;;5.96;75.00
75192;BME280;63771;52.580;9.734;2023-01-16T14:43:33;97956.53;;;5.93;74.91
75192;BME280;63771;52.580;9.734;2023-01-16T14:52:47;97940.97;;;5.87;74.24
75192;BME280;63771;52.580;9.734;2023-01-16T14:58:08;97941.66;;;5.84;74.05
75192;BME280;63771;52.580;9.734;2023-01-16T15:00:36;97942.38;;;5.82;73.64
75192;BME280;63771;52.580;9.734;2023-01-16T15:03:08;97935.41;;;5.78;73.83
75192;BME280;63771;52.580;9.734;2023-01-16T15:05:40;97929.47;;;5.77;73.36
75192;BME280;63771;52.580;9.734;2023-01-16T15:08:29;97931.75;;;5.72;73.14
75192;BME280;63771;52.580;9.734;2023-01-16T15:10:57;97925.81;;;5.72;73.27
75192;BME280;63771;52.580;9.734;2023-01-16T15:13:44;97925.66;;;5.69;73.34
75192;BME280;63771;52.580;9.734;2023-01-16T15:16:28;97921.38;;;5.68;73.05
75192;BME280;63771;52.580;9.734;2023-01-16T15:19:18;97910.31;;;5.66;73.25
75192;BME280;63771;52.580;9.734;2023-01-16T15:22:04;97914.50;;;5.65;73.32